CheckWX is a tool to help pilots better visualize weather data.  It is not intended as a substitute for an official pre-flight weather briefing.

09:09:51 UTC

KBVX METAR
Batesville Regional Airport
Batesville, Arkansas, USA
Current

14 mins ago

KBVX 210856Z AUTO 13003KT 10SM OVC090 23/21 A3013 RMK AO2 SLP198 6//// T02280206 56006
Observed
Sep-21 @ 08:56 UTC
Wind
  • 130° at 3 KTS
Visibility
10 SM
Flight Rules
VFR
Cloud Levels
  • Overcast at 9,000' AGL
Temperature
23°C / 73°F
Dewpoint
21°C / 70°F
Humidity
89%
Altimeter
30.13" Hg
Pressure
1020.32 hPa
Previous

1 hour ago

KBVX 210756Z AUTO 13003KT 10SM FEW060 OVC085 23/21 A3013 RMK AO2 SLP200 T02280211 TSNO
Observed
Sep-21 @ 07:56 UTC
Wind
  • 130° at 3 KTS
Visibility
10 SM
Flight Rules
VFR
Cloud Levels
  • Few at 6,000' AGL
  • Overcast at 8,500' AGL
Temperature
23°C / 73°F
Dewpoint
21°C / 70°F
Humidity
89%
Altimeter
30.13" Hg
Pressure
1020.32 hPa
Previous

2 hours ago

KBVX 210656Z AUTO 15003KT 10SM OVC075 23/21 A3013 RMK AO2 SLP200 T02280211
Observed
Sep-21 @ 06:56 UTC
Wind
  • 150° at 3 KTS
Visibility
10 SM
Flight Rules
VFR
Cloud Levels
  • Overcast at 7,500' AGL
Temperature
23°C / 73°F
Dewpoint
21°C / 70°F
Humidity
89%
Altimeter
30.13" Hg
Pressure
1020.32 hPa